createdAt,value
2018-08-25T00:00:04.668Z,0.00
2018-08-25T00:01:04.589Z,0.00
2018-08-25T00:02:04.513Z,0.00
2018-08-25T00:03:04.436Z,0.00
2018-08-25T00:04:04.361Z,0.00
2018-08-25T00:05:04.289Z,0.00
2018-08-25T00:06:04.208Z,0.00
2018-08-25T00:07:04.136Z,0.00
2018-08-25T00:08:04.055Z,0.00
2018-08-25T00:09:03.978Z,0.00
2018-08-25T00:10:03.904Z,0.00
2018-08-25T00:11:03.826Z,0.00
2018-08-25T00:12:03.750Z,0.00
2018-08-25T00:13:03.675Z,0.00
2018-08-25T00:14:03.602Z,0.00
2018-08-25T00:15:03.523Z,0.00
2018-08-25T00:16:03.449Z,0.00
2018-08-25T00:17:03.368Z,0.00
2018-08-25T00:18:03.293Z,0.00
2018-08-25T00:19:03.218Z,0.00
2018-08-25T00:20:03.150Z,0.00
2018-08-25T00:21:03.068Z,0.00
2018-08-25T00:22:02.998Z,0.00
2018-08-25T00:23:02.912Z,0.00
2018-08-25T00:24:02.836Z,0.00
2018-08-25T00:25:02.759Z,0.00
2018-08-25T00:26:02.686Z,0.00
2018-08-25T00:27:02.607Z,0.00
2018-08-25T00:28:02.532Z,0.00
2018-08-25T00:29:02.456Z,0.00
2018-08-25T00:30:02.379Z,0.00
2018-08-25T00:31:02.304Z,0.00
2018-08-25T00:32:02.227Z,0.00
2018-08-25T00:33:02.150Z,0.00
2018-08-25T00:34:02.075Z,0.00
2018-08-25T00:35:01.998Z,0.00
2018-08-25T00:36:01.925Z,0.00
2018-08-25T00:37:01.848Z,0.00
2018-08-25T00:38:01.778Z,0.00
2018-08-25T00:39:01.694Z,0.00
2018-08-25T00:40:01.617Z,0.00
2018-08-25T00:41:01.550Z,0.00
2018-08-25T00:42:01.470Z,0.00
2018-08-25T00:43:01.391Z,0.00
2018-08-25T00:44:01.313Z,0.00
2018-08-25T00:45:01.237Z,0.00
2018-08-25T00:46:01.160Z,0.00
2018-08-25T00:47:01.086Z,0.00
2018-08-25T00:48:01.010Z,0.00
2018-08-25T00:49:00.935Z,0.00
2018-08-25T00:50:00.866Z,0.00
2018-08-25T00:51:00.777Z,0.00
2018-08-25T00:52:00.704Z,0.00
2018-08-25T00:53:00.629Z,0.00
2018-08-25T00:54:00.549Z,0.00
2018-08-25T00:55:00.473Z,0.00
2018-08-25T00:56:00.396Z,0.00
2018-08-25T00:57:00.343Z,0.00
2018-08-25T00:58:00.244Z,0.00
2018-08-25T00:59:00.192Z,0.00
2018-08-25T01:00:00.091Z,0.00
2018-08-25T01:01:00.014Z,0.00
2018-08-25T01:01:59.936Z,0.00
2018-08-25T01:02:59.861Z,0.00
2018-08-25T01:03:59.787Z,0.00
2018-08-25T01:04:59.709Z,0.00
2018-08-25T01:05:59.635Z,0.00
2018-08-25T01:06:59.553Z,0.00
2018-08-25T01:07:59.479Z,0.00
2018-08-25T01:08:59.401Z,0.00
2018-08-25T01:09:59.325Z,0.00
2018-08-25T01:10:59.245Z,0.00
2018-08-25T01:11:59.172Z,0.00
2018-08-25T01:12:59.094Z,0.00
2018-08-25T01:13:59.018Z,0.00
2018-08-25T01:14:58.939Z,0.00
2018-08-25T01:15:58.868Z,0.00
2018-08-25T01:16:58.788Z,0.00
2018-08-25T01:17:58.711Z,0.00
2018-08-25T01:18:58.634Z,0.00
2018-08-25T01:19:58.563Z,0.00
2018-08-25T01:20:58.481Z,0.00
2018-08-25T01:21:58.404Z,0.00
2018-08-25T01:22:58.327Z,0.00
2018-08-25T01:23:58.250Z,0.00
2018-08-25T01:24:58.176Z,0.00
2018-08-25T01:25:58.096Z,0.00
2018-08-25T01:26:58.020Z,0.00
2018-08-25T01:27:57.949Z,0.00
2018-08-25T01:28:57.873Z,0.00
2018-08-25T01:29:57.789Z,0.00
2018-08-25T01:30:57.714Z,0.00
2018-08-25T01:31:57.637Z,0.00
2018-08-25T01:32:57.560Z,0.00
2018-08-25T01:33:57.481Z,0.00
2018-08-25T01:34:57.406Z,0.00
2018-08-25T01:35:57.327Z,0.00
2018-08-25T01:36:57.252Z,0.00
2018-08-25T01:37:57.175Z,0.00
2018-08-25T01:38:57.096Z,0.00
2018-08-25T01:39:57.024Z,0.00
2018-08-25T01:40:56.946Z,0.00
2018-08-25T01:41:56.868Z,0.00
2018-08-25T01:42:56.791Z,0.00
2018-08-25T01:43:56.715Z,0.00
2018-08-25T01:44:56.638Z,0.00
2018-08-25T01:45:56.561Z,0.00
2018-08-25T01:46:56.486Z,0.00
2018-08-25T01:47:56.407Z,0.00
2018-08-25T01:48:56.334Z,0.00
2018-08-25T01:49:56.258Z,0.00
2018-08-25T01:50:56.179Z,0.00
2018-08-25T01:51:56.103Z,0.00
2018-08-25T01:52:56.024Z,0.00
2018-08-25T01:53:55.948Z,0.00
2018-08-25T01:54:55.869Z,0.00
2018-08-25T01:55:55.793Z,0.00
2018-08-25T01:56:55.716Z,0.00
2018-08-25T01:57:55.642Z,0.00
2018-08-25T01:58:55.564Z,0.00
2018-08-25T01:59:55.486Z,0.00
2018-08-25T02:00:55.410Z,0.00
2018-08-25T02:01:55.334Z,0.00
2018-08-25T02:02:55.255Z,0.00
2018-08-25T02:03:55.196Z,0.00
2018-08-25T02:04:55.104Z,0.00
2018-08-25T02:05:55.027Z,0.00
2018-08-25T02:06:54.946Z,0.00
2018-08-25T02:07:54.871Z,0.00
2018-08-25T02:08:54.795Z,0.00
2018-08-25T02:09:54.723Z,0.00
2018-08-25T02:10:54.640Z,0.00
2018-08-25T02:11:54.565Z,0.00
2018-08-25T02:12:54.486Z,0.00
2018-08-25T02:13:54.410Z,0.00
2018-08-25T02:14:54.332Z,0.00
2018-08-25T02:15:54.257Z,0.00
2018-08-25T02:16:54.178Z,0.00
2018-08-25T02:17:54.104Z,0.00
2018-08-25T02:18:54.024Z,0.00
2018-08-25T02:19:53.946Z,0.00
2018-08-25T02:20:53.870Z,0.00
2018-08-25T02:21:53.793Z,0.00
2018-08-25T02:22:53.719Z,0.00
2018-08-25T02:23:53.641Z,0.00
2018-08-25T02:24:53.565Z,0.00
2018-08-25T02:25:53.485Z,0.00
2018-08-25T02:26:53.411Z,0.00
2018-08-25T02:27:53.331Z,0.00
2018-08-25T02:28:53.257Z,0.00
2018-08-25T02:29:53.177Z,0.00
2018-08-25T02:30:53.099Z,0.00
2018-08-25T02:31:53.026Z,0.00
2018-08-25T02:32:52.946Z,0.00
2018-08-25T02:33:52.869Z,0.00
2018-08-25T02:34:52.792Z,0.00
2018-08-25T02:35:52.714Z,0.00
2018-08-25T02:36:52.637Z,0.00
2018-08-25T02:37:52.562Z,0.00
2018-08-25T02:38:52.549Z,0.00
2018-08-25T02:39:52.411Z,0.00
2018-08-25T02:40:52.329Z,0.00
2018-08-25T02:41:52.255Z,0.00
2018-08-25T02:42:52.175Z,0.00
2018-08-25T02:43:52.100Z,0.00
2018-08-25T02:44:52.025Z,0.00
2018-08-25T02:45:51.946Z,0.00
2018-08-25T02:46:51.866Z,0.00
2018-08-25T02:47:51.790Z,0.00
2018-08-25T02:48:51.717Z,0.00
2018-08-25T02:49:51.637Z,0.00
2018-08-25T02:50:51.559Z,0.00
2018-08-25T02:51:51.482Z,0.00
2018-08-25T02:52:51.405Z,0.00
2018-08-25T02:53:51.328Z,0.00
2018-08-25T02:54:51.255Z,0.00
2018-08-25T02:55:51.177Z,0.00
2018-08-25T02:56:51.101Z,0.00
2018-08-25T02:57:51.024Z,0.00
2018-08-25T02:58:50.946Z,0.00
2018-08-25T02:59:50.866Z,0.00
2018-08-25T03:00:50.791Z,0.00
2018-08-25T03:01:50.712Z,0.00
2018-08-25T03:02:50.635Z,0.00
2018-08-25T03:03:50.558Z,0.00
2018-08-25T03:04:50.480Z,0.00
2018-08-25T03:05:50.404Z,0.00
2018-08-25T03:06:50.328Z,0.00
2018-08-25T03:07:50.251Z,0.00
2018-08-25T03:08:50.169Z,0.00
2018-08-25T03:09:50.091Z,0.00
2018-08-25T03:10:50.015Z,0.00
2018-08-25T03:11:49.936Z,0.00
2018-08-25T03:12:49.860Z,0.00
2018-08-25T03:13:49.838Z,0.00
2018-08-25T03:14:49.705Z,0.00
2018-08-25T03:15:49.629Z,0.00
2018-08-25T03:16:49.559Z,0.00
2018-08-25T03:17:49.477Z,0.00
2018-08-25T03:18:49.400Z,0.00
2018-08-25T03:19:49.325Z,0.00
2018-08-25T03:20:49.247Z,0.00
2018-08-25T03:21:49.187Z,0.00
2018-08-25T03:22:49.091Z,0.00
2018-08-25T03:23:49.021Z,0.00
2018-08-25T03:24:48.933Z,0.00
2018-08-25T03:25:48.856Z,0.00
2018-08-25T03:26:48.779Z,0.00
2018-08-25T03:27:48.699Z,0.00
2018-08-25T03:28:48.625Z,0.00
2018-08-25T03:29:48.547Z,0.00
2018-08-25T03:30:48.469Z,0.00
2018-08-25T03:31:48.389Z,0.00
2018-08-25T03:32:48.315Z,0.00
2018-08-25T03:33:48.241Z,0.00
2018-08-25T03:34:48.162Z,0.00
2018-08-25T03:35:48.083Z,0.00
2018-08-25T03:36:48.007Z,0.00
2018-08-25T03:37:47.929Z,0.00
2018-08-25T03:38:47.851Z,0.00
2018-08-25T03:39:47.771Z,0.00
2018-08-25T03:40:47.698Z,0.00
2018-08-25T03:41:47.616Z,0.00
2018-08-25T03:42:47.539Z,0.00
2018-08-25T03:43:47.473Z,0.00
2018-08-25T03:44:47.385Z,0.00
2018-08-25T03:45:47.316Z,0.00
2018-08-25T03:46:47.231Z,0.00
2018-08-25T03:47:47.156Z,0.00
2018-08-25T03:48:47.078Z,0.00
2018-08-25T03:49:46.999Z,0.00
2018-08-25T03:50:46.920Z,0.00
2018-08-25T03:51:46.843Z,0.00
2018-08-25T03:52:46.765Z,0.00
2018-08-25T03:53:46.693Z,0.00
2018-08-25T03:54:46.612Z,0.00
2018-08-25T03:55:46.544Z,0.00
2018-08-25T03:56:46.467Z,4.00
2018-08-25T03:57:46.383Z,4.00
2018-08-25T03:58:46.307Z,0.00
2018-08-25T03:59:46.239Z,4.00
2018-08-25T04:00:46.148Z,4.00
2018-08-25T04:01:46.071Z,4.00
2018-08-25T04:02:45.992Z,4.00
2018-08-25T04:03:45.917Z,8.00
2018-08-25T04:04:45.838Z,4.00
2018-08-25T04:05:45.768Z,8.00
2018-08-25T04:06:45.684Z,8.00
2018-08-25T04:07:45.611Z,8.00
2018-08-25T04:08:45.532Z,12.00
2018-08-25T04:09:45.454Z,16.00
2018-08-25T04:10:45.377Z,16.00
2018-08-25T04:11:45.298Z,16.00
2018-08-25T04:12:45.219Z,16.00
2018-08-25T04:13:45.150Z,20.00
2018-08-25T04:14:45.082Z,24.00
2018-08-25T04:15:44.993Z,24.00
2018-08-25T04:16:44.913Z,32.00
2018-08-25T04:17:44.841Z,32.00
2018-08-25T04:18:44.756Z,36.00
2018-08-25T04:19:44.680Z,36.00
2018-08-25T04:20:44.605Z,40.00
2018-08-25T04:21:44.528Z,40.00
2018-08-25T04:22:44.451Z,44.00
2018-08-25T04:23:44.372Z,48.00
2018-08-25T04:24:44.293Z,52.00
2018-08-25T04:25:44.222Z,56.00
2018-08-25T04:26:44.142Z,56.00
2018-08-25T04:27:44.067Z,60.00
2018-08-25T04:28:43.986Z,64.00
2018-08-25T04:29:43.908Z,72.00
2018-08-25T04:30:43.835Z,80.00
2018-08-25T04:31:43.756Z,88.00
2018-08-25T04:32:43.680Z,100.00
2018-08-25T04:33:43.601Z,112.00
2018-08-25T04:34:43.523Z,116.00
2018-08-25T04:35:43.445Z,128.00
2018-08-25T04:36:43.370Z,136.00
2018-08-25T04:37:43.296Z,144.00
2018-08-25T04:38:43.215Z,148.00
2018-08-25T04:39:43.139Z,160.00
2018-08-25T04:40:43.061Z,168.00
2018-08-25T04:41:42.983Z,180.00
2018-08-25T04:42:42.911Z,192.00
2018-08-25T04:43:42.828Z,208.00
2018-08-25T04:44:42.754Z,224.00
2018-08-25T04:45:42.675Z,236.00
2018-08-25T04:46:42.595Z,256.00
2018-08-25T04:47:42.519Z,272.00
2018-08-25T04:48:42.444Z,292.00
2018-08-25T04:49:42.368Z,308.00
2018-08-25T04:50:42.288Z,320.00
2018-08-25T04:51:42.213Z,332.00
2018-08-25T04:52:42.133Z,340.00
2018-08-25T04:53:42.057Z,344.00
2018-08-25T04:54:41.981Z,352.00
2018-08-25T04:55:41.901Z,356.00
2018-08-25T04:56:41.823Z,364.00
2018-08-25T04:57:41.747Z,360.00
2018-08-25T04:58:41.669Z,368.00
2018-08-25T04:59:41.592Z,376.00
2018-08-25T05:00:41.516Z,380.00
2018-08-25T05:01:41.502Z,392.00
2018-08-25T05:02:41.365Z,396.00
2018-08-25T05:03:41.286Z,404.00
2018-08-25T05:04:41.207Z,420.00
2018-08-25T05:05:41.131Z,432.00
2018-08-25T05:06:41.052Z,440.00
2018-08-25T05:07:41.069Z,444.00
2018-08-25T05:08:40.899Z,444.00
2018-08-25T05:09:40.821Z,452.00
2018-08-25T05:10:40.742Z,464.00
2018-08-25T05:11:40.669Z,480.00
2018-08-25T05:12:40.590Z,512.00
2018-08-25T05:13:40.512Z,532.00
2018-08-25T05:14:40.434Z,552.00
2018-08-25T05:15:40.355Z,568.00
2018-08-25T05:16:40.283Z,580.00
2018-08-25T05:17:40.205Z,596.00
2018-08-25T05:18:40.128Z,608.00
2018-08-25T05:19:40.049Z,628.00
2018-08-25T05:20:39.970Z,640.00
2018-08-25T05:21:39.894Z,648.00
2018-08-25T05:22:39.816Z,660.00
2018-08-25T05:23:39.738Z,672.00
2018-08-25T05:24:39.662Z,684.00
2018-08-25T05:25:39.586Z,704.00
2018-08-25T05:26:39.508Z,720.00
2018-08-25T05:27:39.430Z,740.00
2018-08-25T05:28:39.355Z,756.00
2018-08-25T05:29:39.278Z,772.00
2018-08-25T05:30:39.200Z,784.00
2018-08-25T05:31:39.174Z,796.00
2018-08-25T05:32:39.045Z,804.00
2018-08-25T05:33:38.970Z,804.00
2018-08-25T05:34:38.890Z,812.00
2018-08-25T05:35:38.818Z,816.00
2018-08-25T05:36:38.737Z,836.00
2018-08-25T05:37:38.659Z,860.00
2018-08-25T05:38:38.585Z,888.00
2018-08-25T05:39:38.506Z,916.00
2018-08-25T05:40:38.429Z,952.00
2018-08-25T05:41:38.351Z,976.00
2018-08-25T05:42:45.437Z,1000.00
2018-08-25T05:44:42.128Z,1044.00
2018-08-25T05:45:42.001Z,1056.00
2018-08-25T05:47:45.813Z,1080.00
2018-08-25T05:48:45.727Z,1104.00
2018-08-25T05:49:45.651Z,1128.00
2018-08-25T05:50:45.577Z,1152.00
2018-08-25T05:51:45.497Z,1184.00
2018-08-25T05:52:45.419Z,1216.00
2018-08-25T05:53:45.344Z,1252.00
2018-08-25T05:54:45.269Z,1284.00
2018-08-25T05:55:45.188Z,1316.00
2018-08-25T05:56:45.112Z,1336.00
2018-08-25T05:57:45.140Z,1344.00
2018-08-25T05:58:44.959Z,1352.00
2018-08-25T05:59:44.885Z,1376.00
2018-08-25T06:00:44.805Z,1404.00
2018-08-25T06:01:44.728Z,1420.00
2018-08-25T06:02:44.651Z,1428.00
2018-08-25T06:03:44.573Z,1424.00
2018-08-25T06:04:44.499Z,1412.00
2018-08-25T06:05:44.423Z,1384.00
2018-08-25T06:06:44.442Z,1348.00
2018-08-25T06:07:44.267Z,1324.00
2018-08-25T06:08:44.221Z,1312.00
2018-08-25T06:09:44.113Z,1316.00
2018-08-25T06:10:44.036Z,1324.00
2018-08-25T06:11:43.960Z,1320.00
2018-08-25T06:12:43.881Z,1308.00
2018-08-25T06:13:43.806Z,1288.00
2018-08-25T06:14:43.745Z,1272.00
2018-08-25T06:15:43.816Z,1268.00
2018-08-25T06:16:43.579Z,1272.00
2018-08-25T06:17:43.555Z,1288.00
2018-08-25T06:18:43.424Z,1304.00
2018-08-25T06:19:43.435Z,1312.00
2018-08-25T06:20:43.272Z,1316.00
2018-08-25T06:21:43.191Z,1316.00
2018-08-25T06:22:43.117Z,1320.00
2018-08-25T06:23:43.034Z,1328.00
2018-08-25T06:24:42.967Z,1348.00
2018-08-25T06:25:42.888Z,1372.00
2018-08-25T06:26:42.813Z,1408.00
2018-08-25T06:27:42.734Z,1452.00
2018-08-25T06:28:42.654Z,1504.00
2018-08-25T06:29:42.613Z,1568.00
2018-08-25T06:30:42.501Z,1636.00
2018-08-25T06:31:42.423Z,1700.00
2018-08-25T06:32:42.349Z,1764.00
2018-08-25T06:33:42.270Z,1824.00
2018-08-25T06:34:42.194Z,1888.00
2018-08-25T06:35:42.117Z,1956.00
2018-08-25T06:36:42.115Z,2028.00
2018-08-25T06:37:41.963Z,2108.00
2018-08-25T06:38:41.885Z,2188.00
2018-08-25T06:39:41.810Z,2264.00
2018-08-25T06:40:41.734Z,2332.00
2018-08-25T06:41:41.656Z,2400.00
2018-08-25T06:42:41.649Z,2472.00
2018-08-25T06:43:41.601Z,2528.00
2018-08-25T06:44:41.428Z,2592.00
2018-08-25T06:45:41.353Z,2644.00
2018-08-25T06:46:41.277Z,2700.00
2018-08-25T06:47:41.201Z,2744.00
2018-08-25T06:48:41.130Z,2760.00
2018-08-25T06:49:41.045Z,2748.00
2018-08-25T06:50:40.967Z,2728.00
2018-08-25T06:51:40.902Z,2712.00
2018-08-25T06:52:40.814Z,2716.00
2018-08-25T06:53:40.738Z,2732.00
2018-08-25T06:54:40.661Z,2748.00
2018-08-25T06:55:40.584Z,2732.00
2018-08-25T06:56:40.509Z,2672.00
2018-08-25T06:57:40.432Z,2584.00
2018-08-25T06:58:40.357Z,2488.00
2018-08-25T06:59:40.385Z,2404.00
2018-08-25T07:00:40.204Z,2328.00
2018-08-25T07:01:40.195Z,2264.00
2018-08-25T07:02:40.052Z,2228.00
2018-08-25T07:03:39.986Z,2192.00
2018-08-25T07:04:39.974Z,2168.00
2018-08-25T07:05:39.890Z,2160.00
2018-08-25T07:06:39.827Z,2152.00
2018-08-25T07:07:39.747Z,2160.00
2018-08-25T07:08:39.596Z,2192.00
2018-08-25T07:09:39.515Z,2260.00
2018-08-25T07:10:39.442Z,2376.00
2018-08-25T07:11:39.365Z,2536.00
2018-08-25T07:12:39.289Z,2708.00
2018-08-25T07:13:39.208Z,2876.00
2018-08-25T07:14:39.133Z,3028.00
2018-08-25T07:15:39.056Z,3152.00
2018-08-25T07:16:38.980Z,3252.00
2018-08-25T07:17:38.905Z,3316.00
2018-08-25T07:18:38.829Z,3376.00
2018-08-25T07:19:38.751Z,3468.00
2018-08-25T07:20:38.675Z,3576.00
2018-08-25T07:21:38.605Z,3692.00
2018-08-25T07:22:38.522Z,3784.00
2018-08-25T07:23:38.444Z,3836.00
2018-08-25T07:24:38.370Z,3852.00
2018-08-25T07:25:38.343Z,3852.00
2018-08-25T07:26:38.218Z,3840.00
2018-08-25T07:27:38.142Z,3828.00
2018-08-25T07:28:38.066Z,3836.00
2018-08-25T07:31:20.579Z,3936.00
2018-08-25T07:32:20.452Z,3976.00
2018-08-25T07:34:13.252Z,3996.00
2018-08-25T07:35:13.125Z,3932.00
2018-08-25T07:36:13.048Z,3792.00
2018-08-25T07:37:12.985Z,3612.00
2018-08-25T07:38:12.940Z,3444.00
2018-08-25T07:39:12.882Z,3324.00
2018-08-25T07:40:12.743Z,3240.00
2018-08-25T07:41:12.672Z,3196.00
2018-08-25T07:42:12.592Z,3164.00
2018-08-25T07:43:12.517Z,3148.00
2018-08-25T07:44:12.441Z,3136.00
2018-08-25T07:45:12.382Z,3116.00
2018-08-25T07:46:12.293Z,3104.00
2018-08-25T07:47:12.213Z,3056.00
2018-08-25T07:48:12.137Z,2960.00
2018-08-25T07:49:12.064Z,2852.00
2018-08-25T07:50:11.992Z,2736.00
2018-08-25T07:51:11.909Z,2620.00
2018-08-25T07:52:11.834Z,2500.00
2018-08-25T07:53:11.767Z,2392.00
2018-08-25T07:54:11.698Z,2308.00
2018-08-25T07:55:11.616Z,2268.00
2018-08-25T07:56:11.530Z,2264.00
2018-08-25T07:57:11.457Z,2300.00
2018-08-25T07:58:11.386Z,2352.00
2018-08-25T07:59:11.379Z,2420.00
2018-08-25T08:00:11.230Z,2504.00
2018-08-25T08:01:11.158Z,2608.00
2018-08-25T08:02:11.091Z,2700.00
2018-08-25T08:03:11.002Z,2768.00
2018-08-25T08:04:10.924Z,2808.00
2018-08-25T08:05:10.855Z,2812.00
2018-08-25T08:06:10.777Z,2768.00
2018-08-25T08:07:10.697Z,2724.00
2018-08-25T08:08:10.635Z,2676.00
2018-08-25T08:09:10.548Z,2640.00
2018-08-25T08:10:10.472Z,2644.00
2018-08-25T08:11:10.409Z,2676.00
2018-08-25T08:12:10.370Z,2784.00
2018-08-25T08:13:10.250Z,2960.00
2018-08-25T08:14:10.171Z,3200.00
2018-08-25T08:15:10.133Z,3492.00
2018-08-25T08:16:10.023Z,3788.00
2018-08-25T08:17:09.947Z,3980.00
2018-08-25T08:18:09.867Z,4096.00
2018-08-25T08:19:09.792Z,4180.00
2018-08-25T08:20:09.715Z,4216.00
2018-08-25T08:21:09.641Z,4192.00
2018-08-25T08:22:09.565Z,4192.00
2018-08-25T08:23:09.491Z,4260.00
2018-08-25T08:24:09.415Z,4348.00
2018-08-25T08:25:09.341Z,4424.00
2018-08-25T08:26:09.264Z,4492.00
2018-08-25T08:27:09.193Z,4560.00
2018-08-25T08:28:09.116Z,4588.00
2018-08-25T08:29:09.035Z,4648.00
2018-08-25T08:30:08.960Z,4844.00
2018-08-25T08:31:08.885Z,5004.00
2018-08-25T08:32:08.811Z,5060.00
2018-08-25T08:33:08.840Z,5108.00
2018-08-25T08:34:08.664Z,5144.00
2018-08-25T08:35:08.590Z,5004.00
2018-08-25T08:36:08.509Z,4944.00
2018-08-25T08:37:08.434Z,5004.00
2018-08-25T08:38:08.362Z,4908.00
2018-08-25T08:39:08.282Z,4900.00
2018-08-25T08:40:08.208Z,4912.00
2018-08-25T08:41:08.133Z,4908.00
2018-08-25T08:42:08.098Z,4948.00
2018-08-25T08:43:07.985Z,5048.00
2018-08-25T08:44:07.907Z,5216.00
2018-08-25T08:45:07.832Z,5368.00
2018-08-25T08:46:07.757Z,5584.00
2018-08-25T08:47:07.683Z,5828.00
2018-08-25T08:48:07.607Z,6024.00
2018-08-25T08:49:07.535Z,6080.00
2018-08-25T08:50:07.457Z,6136.00
2018-08-25T08:51:07.384Z,6348.00
2018-08-25T08:52:07.308Z,6632.00
2018-08-25T08:53:07.232Z,6524.00
2018-08-25T08:54:07.158Z,6308.00
2018-08-25T08:55:07.085Z,6140.00
2018-08-25T08:56:07.010Z,5980.00
2018-08-25T08:57:06.935Z,5700.00
2018-08-25T08:58:06.870Z,5424.00
2018-08-25T08:59:06.785Z,5200.00
2018-08-25T09:00:06.707Z,5020.00
2018-08-25T09:01:06.636Z,4976.00
2018-08-25T09:02:06.561Z,4976.00
2018-08-25T09:03:06.485Z,4936.00
2018-08-25T09:04:06.410Z,4868.00
2018-08-25T09:05:06.334Z,4784.00
2018-08-25T09:06:06.263Z,4720.00
2018-08-25T09:07:06.189Z,4732.00
2018-08-25T09:08:06.113Z,4796.00
2018-08-25T09:09:06.049Z,4844.00
2018-08-25T09:10:05.964Z,4852.00
2018-08-25T09:11:05.890Z,4800.00
2018-08-25T09:12:05.815Z,4660.00
2018-08-25T09:13:05.741Z,4468.00
2018-08-25T09:14:05.666Z,4272.00
2018-08-25T09:15:05.593Z,4152.00
2018-08-25T09:16:05.525Z,4124.00
2018-08-25T09:17:05.443Z,4168.00
2018-08-25T09:18:05.368Z,4252.00
2018-08-25T09:19:05.293Z,4352.00
2018-08-25T09:20:05.220Z,4452.00
2018-08-25T09:21:05.144Z,4516.00
2018-08-25T09:22:05.069Z,4540.00
2018-08-25T09:23:04.993Z,4580.00
2018-08-25T09:24:04.918Z,4660.00
2018-08-25T09:25:04.849Z,4748.00
2018-08-25T09:26:04.772Z,4820.00
2018-08-25T09:27:04.697Z,4924.00
2018-08-25T09:28:04.618Z,5056.00
2018-08-25T09:29:04.546Z,5164.00
2018-08-25T09:30:04.471Z,5244.00
2018-08-25T09:31:04.402Z,5304.00
2018-08-25T09:32:04.320Z,5348.00
2018-08-25T09:33:04.245Z,5408.00
2018-08-25T09:34:04.172Z,5444.00
2018-08-25T09:35:04.098Z,5460.00
2018-08-25T09:36:04.070Z,5460.00
2018-08-25T09:37:04.011Z,5452.00
2018-08-25T09:38:03.873Z,5560.00
2018-08-25T09:39:03.798Z,5716.00
2018-08-25T09:40:03.724Z,5824.00
2018-08-25T09:41:03.650Z,5876.00
2018-08-25T09:42:03.580Z,5932.00
2018-08-25T09:43:03.499Z,5980.00
2018-08-25T09:44:03.423Z,6056.00
2018-08-25T09:45:03.351Z,6040.00
2018-08-25T09:46:03.276Z,5900.00
2018-08-25T09:47:03.234Z,5628.00
2018-08-25T09:48:03.130Z,5420.00
2018-08-25T09:49:03.054Z,5380.00
2018-08-25T09:50:02.985Z,5392.00
2018-08-25T09:51:02.913Z,5412.00
2018-08-25T09:52:02.829Z,5440.00
2018-08-25T09:53:02.755Z,5468.00
2018-08-25T09:54:02.684Z,5532.00
2018-08-25T09:55:02.619Z,5628.00
2018-08-25T09:56:02.533Z,5696.00
2018-08-25T09:57:02.459Z,5764.00
2018-08-25T09:58:02.387Z,5832.00
2018-08-25T09:59:02.344Z,5780.00
2018-08-25T10:00:02.237Z,5648.00
2018-08-25T10:01:02.172Z,5584.00
2018-08-25T10:02:02.094Z,5532.00
2018-08-25T10:03:02.015Z,5536.00
2018-08-25T10:04:01.946Z,5552.00
2018-08-25T10:05:01.924Z,5536.00
2018-08-25T10:06:01.793Z,5536.00
2018-08-25T10:07:01.718Z,5528.00
2018-08-25T10:08:01.645Z,5400.00
2018-08-25T10:09:01.571Z,5188.00
2018-08-25T10:10:01.505Z,5012.00
2018-08-25T10:11:01.535Z,4840.00
2018-08-25T10:12:01.347Z,4656.00
2018-08-25T10:13:01.273Z,4584.00
2018-08-25T10:14:01.199Z,4512.00
2018-08-25T10:15:01.126Z,4368.00
2018-08-25T10:16:01.055Z,4196.00
2018-08-25T10:17:00.980Z,4060.00
2018-08-25T10:18:00.908Z,4012.00
2018-08-25T10:19:00.830Z,3992.00
2018-08-25T10:20:00.754Z,3968.00
2018-08-25T10:21:00.678Z,3976.00
2018-08-25T10:22:00.606Z,4024.00
2018-08-25T10:23:00.597Z,4076.00
2018-08-25T10:24:00.457Z,4140.00
2018-08-25T10:25:00.383Z,4220.00
2018-08-25T10:26:00.311Z,4300.00
2018-08-25T10:27:00.237Z,4368.00
2018-08-25T10:28:00.162Z,4500.00
2018-08-25T10:29:00.113Z,4688.00
2018-08-25T10:30:00.021Z,4860.00
2018-08-25T10:30:59.939Z,5004.00
2018-08-25T10:31:59.865Z,5068.00
2018-08-25T10:32:59.790Z,5036.00
2018-08-25T10:33:59.717Z,4988.00
2018-08-25T10:34:59.652Z,4812.00
2018-08-25T10:35:59.567Z,4556.00
2018-08-25T10:36:59.494Z,4368.00
2018-08-25T10:37:59.419Z,4272.00
2018-08-25T10:38:59.347Z,4196.00
2018-08-25T10:39:59.275Z,4160.00
2018-08-25T10:40:59.197Z,4136.00
2018-08-25T10:41:59.185Z,4108.00
2018-08-25T10:42:59.049Z,4116.00
2018-08-25T10:43:58.976Z,4196.00
2018-08-25T10:44:58.899Z,4340.00
2018-08-25T10:45:58.829Z,4480.00
2018-08-25T10:46:58.756Z,4604.00
2018-08-25T10:47:58.719Z,4732.00
2018-08-25T10:48:58.603Z,4832.00
2018-08-25T10:49:58.541Z,4888.00
2018-08-25T10:50:58.456Z,4940.00
2018-08-25T10:51:58.381Z,5012.00
2018-08-25T10:52:58.304Z,5096.00
2018-08-25T10:53:58.351Z,5168.00
2018-08-25T10:54:58.177Z,5220.00
2018-08-25T10:55:58.093Z,5300.00
2018-08-25T10:56:58.007Z,5432.00
2018-08-25T10:57:57.943Z,5580.00
2018-08-25T10:58:57.859Z,5672.00
2018-08-25T10:59:57.786Z,5748.00
2018-08-25T11:00:57.917Z,5868.00
2018-08-25T11:01:57.636Z,6016.00
2018-08-25T11:02:57.568Z,6048.00
2018-08-25T11:03:57.490Z,5948.00
2018-08-25T11:04:57.416Z,5944.00
2018-08-25T11:05:57.338Z,6024.00
2018-08-25T11:06:57.287Z,6116.00
2018-08-25T11:07:57.193Z,6184.00
2018-08-25T11:08:57.213Z,6304.00
2018-08-25T11:09:57.045Z,6328.00
2018-08-25T11:10:56.966Z,6456.00
2018-08-25T11:11:56.892Z,6712.00
2018-08-25T11:12:56.818Z,7000.00
2018-08-25T11:13:56.746Z,7272.00
2018-08-25T11:14:56.670Z,7516.00
2018-08-25T11:15:56.594Z,7948.00
2018-08-25T11:16:56.521Z,8396.00
2018-08-25T11:17:56.447Z,8772.00
2018-08-25T11:18:56.375Z,9004.00
2018-08-25T11:19:56.299Z,9520.00
2018-08-25T11:20:56.226Z,9652.00
2018-08-25T11:21:56.152Z,9684.00
2018-08-25T11:22:56.078Z,9420.00
2018-08-25T11:23:56.004Z,8972.00
2018-08-25T11:24:55.932Z,9072.00
2018-08-25T11:25:55.860Z,9588.00
2018-08-25T11:26:55.783Z,9644.00
2018-08-25T11:27:55.709Z,8572.00
2018-08-25T11:28:55.636Z,7696.00
2018-08-25T11:29:55.562Z,7596.00
2018-08-25T11:30:55.488Z,7696.00
2018-08-25T11:31:55.414Z,7648.00
2018-08-25T11:32:55.341Z,7816.00
2018-08-25T11:33:55.280Z,7872.00
2018-08-25T11:34:55.195Z,7872.00
2018-08-25T11:35:55.120Z,7948.00
2018-08-25T11:36:55.048Z,7928.00
2018-08-25T11:37:54.999Z,7612.00
2018-08-25T11:38:54.900Z,6960.00
2018-08-25T11:39:54.830Z,6548.00
2018-08-25T11:40:54.755Z,6152.00
2018-08-25T11:41:54.681Z,5664.00
2018-08-25T11:44:26.667Z,4704.00
2018-08-25T11:45:26.544Z,4548.00
2018-08-25T11:47:30.914Z,4020.00
2018-08-25T11:48:30.804Z,3868.00
2018-08-25T11:50:35.156Z,3288.00
2018-08-25T11:51:35.028Z,3192.00
2018-08-25T11:53:39.333Z,2456.00
2018-08-25T11:54:39.256Z,2060.00
2018-08-25T11:56:43.612Z,1564.00
2018-08-25T11:57:43.491Z,1400.00
2018-08-25T11:59:47.804Z,756.00
2018-08-25T12:00:47.725Z,688.00
2018-08-25T12:02:52.079Z,1196.00
2018-08-25T12:03:52.008Z,1428.00
2018-08-25T12:05:56.319Z,1732.00
2018-08-25T12:06:56.196Z,1784.00
2018-08-25T12:09:00.504Z,1800.00
2018-08-25T12:10:00.423Z,1816.00
2018-08-25T12:12:04.782Z,2064.00
2018-08-25T12:13:04.663Z,2276.00
2018-08-25T12:15:08.965Z,2696.00
2018-08-25T12:16:08.893Z,2848.00
2018-08-25T12:17:08.811Z,3016.00
2018-08-25T12:18:08.739Z,3200.00
2018-08-25T12:19:08.660Z,3432.00
2018-08-25T12:20:09.520Z,3696.00
2018-08-25T12:21:08.508Z,3940.00
2018-08-25T12:22:08.434Z,4188.00
2018-08-25T12:23:08.377Z,4356.00
2018-08-25T12:24:08.350Z,4480.00
2018-08-25T12:25:08.208Z,4540.00
2018-08-25T12:26:08.163Z,4520.00
2018-08-25T12:27:08.061Z,4420.00
2018-08-25T12:28:07.984Z,4312.00
2018-08-25T12:29:07.905Z,4224.00
2018-08-25T12:30:07.838Z,4196.00
2018-08-25T12:31:07.756Z,4216.00
2018-08-25T12:32:07.683Z,4208.00
2018-08-25T12:33:07.607Z,4132.00
2018-08-25T12:34:07.542Z,4056.00
2018-08-25T12:35:07.458Z,3988.00
2018-08-25T12:36:07.382Z,3908.00
2018-08-25T12:37:07.305Z,3836.00
2018-08-25T12:38:07.234Z,3800.00
2018-08-25T12:39:07.171Z,3808.00
2018-08-25T12:40:07.118Z,3840.00
2018-08-25T12:41:07.006Z,3888.00
2018-08-25T12:42:06.930Z,3964.00
2018-08-25T12:43:06.879Z,4076.00
2018-08-25T12:44:06.782Z,4220.00
2018-08-25T12:45:06.883Z,4388.00
2018-08-25T12:46:06.636Z,4520.00
2018-08-25T12:47:06.558Z,4608.00
2018-08-25T12:48:06.479Z,4664.00